createdAt,value
2023-05-15T06:45:24.645Z,19.23
2023-05-15T06:47:52.571Z,19.29
2023-05-15T06:50:20.714Z,19.34
2023-05-15T06:52:49.239Z,19.38
2023-05-15T06:55:17.804Z,19.42
2023-05-15T07:07:19.356Z,19.58
2023-05-15T07:09:48.240Z,19.67
2023-05-15T07:12:16.579Z,19.68
2023-05-15T07:14:46.849Z,19.67
2023-05-15T07:17:14.292Z,19.66
2023-05-15T07:19:48.161Z,19.64
2023-05-15T07:22:20.081Z,19.60
2023-05-15T07:24:58.693Z,19.59
2023-05-15T07:27:29.867Z,19.57
2023-05-15T07:30:10.543Z,19.56
2023-05-15T07:32:39.308Z,19.54
2023-05-15T07:35:07.591Z,19.54
2023-05-15T07:37:36.109Z,19.53
2023-05-15T07:40:04.637Z,19.52
2023-05-15T07:42:33.371Z,19.53
2023-05-15T07:45:01.086Z,19.52
2023-05-15T07:47:29.089Z,19.52
2023-05-15T07:49:57.117Z,19.52
2023-05-15T07:52:26.862Z,19.52
2023-05-15T07:55:05.852Z,19.53
2023-05-15T07:57:33.851Z,19.53
2023-05-15T08:00:09.548Z,19.54
2023-05-15T08:02:46.052Z,19.54
2023-05-15T08:05:16.464Z,19.54
2023-05-15T08:08:12.198Z,19.55
2023-05-15T08:10:43.132Z,19.55
2023-05-15T08:13:11.042Z,19.55
2023-05-15T08:15:38.949Z,19.55
2023-05-15T08:18:10.331Z,19.56
2023-05-15T08:20:39.809Z,19.56
2023-05-15T08:23:12.774Z,19.58
2023-05-15T08:25:40.571Z,19.58
2023-05-15T08:28:10.749Z,19.59
2023-05-15T08:34:11.377Z,19.59
2023-05-15T08:36:39.652Z,19.59
2023-05-15T08:39:11.520Z,19.59
2023-05-15T08:41:51.720Z,19.59
2023-05-15T08:44:22.146Z,19.58
2023-05-15T08:47:11.632Z,19.58
2023-05-15T08:50:10.110Z,19.57
2023-05-15T08:52:47.238Z,19.56
2023-05-15T08:55:15.409Z,19.56
2023-05-15T08:57:47.628Z,19.55
2023-05-15T09:00:16.008Z,19.54
2023-05-15T09:02:46.761Z,19.54
2023-05-15T09:05:15.505Z,19.53
2023-05-15T09:07:48.023Z,19.53
2023-05-15T09:10:15.721Z,19.52
2023-05-15T09:12:46.780Z,19.51
2023-05-15T09:15:17.554Z,19.50
2023-05-15T09:17:48.498Z,19.50
2023-05-15T09:20:31.105Z,19.49
2023-05-15T09:22:59.711Z,19.49
2023-05-15T09:25:41.076Z,19.48
2023-05-15T09:28:10.390Z,19.48
2023-05-15T09:30:42.081Z,19.48
2023-05-15T09:33:10.609Z,19.47
2023-05-15T09:35:39.800Z,19.48
2023-05-15T09:38:12.058Z,19.47
2023-05-15T09:40:40.577Z,19.47
2023-05-15T09:43:13.957Z,19.46
2023-05-15T09:45:42.975Z,19.46
2023-05-15T09:48:12.117Z,19.45
2023-05-15T09:50:40.969Z,19.44
2023-05-15T09:53:12.056Z,19.44
2023-05-15T09:55:41.089Z,19.43
2023-05-15T09:58:11.070Z,19.43
2023-05-15T10:00:47.912Z,19.43
2023-05-15T10:03:19.363Z,19.43
2023-05-15T10:05:50.630Z,19.44
2023-05-15T10:08:28.849Z,19.44
2023-05-15T10:10:59.609Z,19.44
2023-05-15T10:13:28.296Z,19.45
2023-05-15T10:15:57.219Z,19.45
2023-05-15T10:18:26.408Z,19.45
2023-05-15T10:20:54.449Z,19.46
2023-05-15T10:23:22.054Z,19.46
2023-05-15T10:26:01.937Z,19.47
2023-05-15T10:28:39.548Z,19.47
2023-05-15T10:34:08.297Z,19.48
2023-05-15T10:36:38.098Z,19.47
2023-05-15T10:39:10.856Z,19.47
2023-05-15T10:41:39.444Z,19.47
2023-05-15T10:44:09.396Z,19.47
2023-05-15T10:46:37.491Z,19.47
2023-05-15T10:49:05.676Z,19.47
2023-05-15T10:54:26.925Z,19.48
2023-05-15T10:56:55.610Z,19.48
2023-05-15T10:59:35.466Z,19.48
2023-05-15T11:02:23.710Z,19.49
2023-05-15T11:04:57.122Z,19.50
2023-05-15T11:07:25.614Z,19.52
